Time;durP1;ratioP1;P1;durP2;ratioP2;P2;SDS_P1;SDS_P2;PMS_P1;PMS_P2;Temp;Humidity;BMP_temperature;BMP_pressure;BME280_temperature;BME280_humidity;BME280_pressure;Samples;Min_cycle;Max_cycle;Signal;HPM_P1;HPM_P2
2021/03/02 00:00:19;;;;;;;24.02;14.80;;;77.40;2150.40;;;;;;4902281;29;20078;-75
2021/03/02 00:02:44;;;;;;;24.80;13.52;;;77.30;2176.00;;;;;;4918311;29;20028;-75
2021/03/02 00:05:12;;;;;;;25.40;14.35;;;77.30;2176.00;;;;;;4900578;29;20127;-75
2021/03/02 00:07:38;;;;;;;28.33;15.60;;;77.30;2176.00;;;;;;4915748;29;20036;-75
2021/03/02 00:10:06;;;;;;;25.48;16.52;;;77.20;2201.60;;;;;;4900529;29;20028;-75
2021/03/02 00:12:33;;;;;;;28.10;15.65;;;77.20;2201.60;;;;;;4902368;29;20038;-76
2021/03/02 00:14:59;;;;;;;21.48;13.13;;;77.10;2201.60;;;;;;4902308;29;20485;-75
2021/03/02 00:17:31;;;;;;;26.90;15.25;;;77.20;2227.20;;;;;;4919349;29;20060;-75
2021/03/02 00:20:07;;;;;;;27.25;15.65;;;77.20;2201.60;;;;;;4902640;29;20119;-75
2021/03/02 00:22:48;;;;;;;26.67;14.93;;;77.10;2201.60;;;;;;4914951;29;20063;-75
2021/03/02 00:25:14;;;;;;;21.52;13.98;;;77.10;2201.60;;;;;;4933804;29;20031;-76
2021/03/02 00:27:41;;;;;;;24.58;14.95;;;77.10;2201.60;;;;;;4918793;29;20024;-75
2021/03/02 00:30:07;;;;;;;26.33;14.55;;;77.00;2227.20;;;;;;4920997;29;20087;-75
2021/03/02 00:32:33;;;;;;;25.00;15.88;;;77.10;2227.20;;;;;;4902672;29;20067;-75
2021/03/02 00:34:59;;;;;;;30.15;15.95;;;77.00;2227.20;;;;;;4918451;29;20048;-75
2021/03/02 00:37:25;;;;;;;35.30;17.63;;;77.00;2227.20;;;;;;4901929;29;20671;-75
2021/03/02 00:39:51;;;;;;;25.25;14.48;;;77.00;2227.20;;;;;;4921285;29;20035;-75
2021/03/02 00:42:17;;;;;;;28.77;15.65;;;76.90;2227.20;;;;;;4901328;29;20115;-75
2021/03/02 00:44:42;;;;;;;26.52;17.05;;;76.80;2227.20;;;;;;4901107;29;20024;-75
2021/03/02 00:47:08;;;;;;;26.70;15.57;;;76.80;2227.20;;;;;;4925549;29;20032;-75
2021/03/02 00:49:34;;;;;;;28.10;15.63;;;76.80;2227.20;;;;;;4902554;29;20509;-75
2021/03/02 00:52:00;;;;;;;30.10;15.88;;;76.90;2227.20;;;;;;4926956;29;20032;-75
2021/03/02 00:54:25;;;;;;;26.15;15.95;;;76.90;2227.20;;;;;;4909123;29;20040;-75
2021/03/02 00:56:51;;;;;;;26.33;15.63;;;76.80;2227.20;;;;;;4897035;29;20044;-75
2021/03/02 00:59:17;;;;;;;33.78;17.70;;;76.80;2227.20;;;;;;4916999;29;20119;-75
2021/03/02 01:01:42;;;;;;;30.65;17.88;;;52.10;2227.20;;;;;;4920190;29;20489;-76
2021/03/02 01:04:08;;;;;;;32.92;17.02;;;76.80;2227.20;;;;;;4904116;29;20032;-75
2021/03/02 01:06:34;;;;;;;32.78;18.50;;;76.80;2227.20;;;;;;4926878;29;20092;-75
2021/03/02 01:09:00;;;;;;;31.40;17.67;;;76.80;2227.20;;;;;;4916379;29;20116;-76
2021/03/02 01:11:26;;;;;;;32.42;18.70;;;76.80;2227.20;;;;;;4908202;29;20032;-75
2021/03/02 01:13:52;;;;;;;35.25;20.10;;;76.80;2227.20;;;;;;4901044;29;20055;-75
2021/03/02 01:16:17;;;;;;;30.73;16.67;;;52.10;2227.20;;;;;;4920516;29;20087;-75
2021/03/02 01:18:43;;;;;;;33.45;18.98;;;52.10;2227.20;;;;;;4940757;29;20028;-75
2021/03/02 01:21:09;;;;;;;35.97;18.60;;;52.10;2227.20;;;;;;4938531;29;20035;-77
2021/03/02 01:23:35;;;;;;;35.78;19.42;;;52.10;2227.20;;;;;;4942685;29;20392;-74
2021/03/02 01:26:00;;;;;;;28.77;17.23;;;52.10;2227.20;;;;;;4922597;29;20109;-76
2021/03/02 01:28:26;;;;;;;29.02;18.05;;;76.80;2227.20;;;;;;4946003;29;20028;-75
2021/03/02 01:30:52;;;;;;;36.58;20.75;;;52.10;2227.20;;;;;;4917103;29;20033;-75
2021/03/02 01:33:18;;;;;;;33.28;19.10;;;52.10;2227.20;;;;;;4935944;29;20050;-75
2021/03/02 01:35:44;;;;;;;32.40;18.42;;;52.10;2227.20;;;;;;4920832;29;20056;-75
2021/03/02 01:38:10;;;;;;;28.67;17.88;;;52.10;2227.20;;;;;;4936614;29;20085;-75
2021/03/02 01:40:35;;;;;;;30.88;17.88;;;52.10;2227.20;;;;;;4919659;29;20036;-75
2021/03/02 01:43:01;;;;;;;36.75;20.63;;;52.10;2227.20;;;;;;4919443;29;20048;-75
2021/03/02 01:45:27;;;;;;;34.40;18.83;;;52.10;2227.20;;;;;;4932537;29;20086;-75
2021/03/02 01:47:53;;;;;;;32.65;17.70;;;52.10;2227.20;;;;;;4919780;29;20050;-75
2021/03/02 01:50:21;;;;;;;31.42;17.17;;;52.10;2227.20;;;;;;4935261;29;20035;-75
2021/03/02 01:52:47;;;;;;;32.78;17.67;;;52.00;2227.20;;;;;;4936170;29;20055;-75
2021/03/02 01:55:15;;;;;;;35.63;18.95;;;52.00;2227.20;;;;;;4901421;29;20028;-74
2021/03/02 01:57:41;;;;;;;35.25;18.55;;;52.00;2227.20;;;;;;4900414;29;20054;-75
2021/03/02 02:00:13;;;;;;;34.65;19.40;;;51.90;2227.20;;;;;;4917954;29;20043;-75
2021/03/02 02:03:17;;;;;;;29.10;17.05;;;51.90;2227.20;;;;;;4912574;29;20071;-74
2021/03/02 02:05:49;;;;;;;33.45;19.23;;;51.90;2227.20;;;;;;4904262;29;20036;-74
2021/03/02 02:08:20;;;;;;;33.97;19.75;;;52.00;2227.20;;;;;;4927705;29;20508;-75
2021/03/02 02:10:58;;;;;;;32.97;17.45;;;52.10;2227.20;;;;;;4918421;29;20501;-75
2021/03/02 02:13:38;;;;;;;34.10;17.70;;;52.10;2227.20;;;;;;4918347;29;20043;-76
2021/03/02 02:16:08;;;;;;;28.98;16.45;;;52.10;2227.20;;;;;;4917266;29;20350;-75
2021/03/02 02:18:35;;;;;;;32.92;17.75;;;52.00;2227.20;;;;;;4900252;29;20405;-75
2021/03/02 02:21:06;;;;;;;31.58;18.30;;;52.00;2227.20;;;;;;4899851;29;20028;-75
2021/03/02 02:23:35;;;;;;;27.65;16.65;;;51.90;2227.20;;;;;;4902128;29;20426;-76
2021/03/02 02:26:54;;;;;;;32.35;16.83;;;51.90;2227.20;;;;;;4918301;29;20091;-75
2021/03/02 02:29:24;;;;;;;32.22;17.23;;;51.80;2227.20;;;;;;4877159;29;20025;-75
2021/03/02 02:31:51;;;;;;;30.10;16.15;;;51.80;2227.20;;;;;;4892289;29;20051;-75
2021/03/02 02:34:19;;;;;;;30.90;18.20;;;51.70;2227.20;;;;;;4861196;29;20427;-75
2021/03/02 02:36:48;;;;;;;31.58;18.00;;;51.80;2227.20;;;;;;4860530;29;20426;-75
2021/03/02 02:39:16;;;;;;;31.05;18.02;;;51.70;2227.20;;;;;;4861277;29;20065;-75
2021/03/02 02:41:43;;;;;;;33.10;18.15;;;51.70;2227.20;;;;;;4865504;29;20381;-75
2021/03/02 02:44:11;;;;;;;35.28;18.38;;;51.70;2227.20;;;;;;4859044;29;20041;-74
2021/03/02 02:46:37;;;;;;;30.98;18.52;;;51.70;2227.20;;;;;;4876947;29;20045;-75
2021/03/02 02:49:04;;;;;;;35.13;18.00;;;51.60;2227.20;;;;;;4876595;29;20037;-76
2021/03/02 02:51:31;;;;;;;33.50;19.08;;;51.60;2227.20;;;;;;4862533;29;20436;-75
2021/03/02 02:53:58;;;;;;;40.28;20.15;;;51.60;2227.20;;;;;;4888210;29;20028;-74
2021/03/02 02:56:24;;;;;;;37.00;21.67;;;51.60;2227.20;;;;;;4869857;29;20152;-75
2021/03/02 02:59:01;;;;;;;35.13;19.65;;;51.60;2227.20;;;;;;4851489;29;20529;-75
2021/03/02 03:01:30;;;;;;;36.88;20.63;;;51.50;2227.20;;;;;;4860666;29;20474;-75
2021/03/02 03:04:00;;;;;;;37.63;20.20;;;51.50;2227.20;;;;;;4895055;29;20055;-75
2021/03/02 03:06:28;;;;;;;36.15;19.45;;;51.50;2227.20;;;;;;4914195;29;20036;-74
2021/03/02 03:08:54;;;;;;;34.63;18.05;;;51.40;2227.20;;;;;;4898915;29;20040;-75
2021/03/02 03:11:27;;;;;;;40.45;21.30;;;51.40;2227.20;;;;;;4914546;29;20036;-75
2021/03/02 03:13:55;;;;;;;36.08;19.52;;;51.50;2227.20;;;;;;4898439;29;20032;-75
2021/03/02 03:16:24;;;;;;;31.88;17.33;;;51.40;2227.20;;;;;;4936413;29;20037;-75
2021/03/02 03:18:57;;;;;;;33.72;18.02;;;51.40;2227.20;;;;;;4921944;29;20028;-75
2021/03/02 03:21:24;;;;;;;35.50;17.80;;;51.40;2227.20;;;;;;4917183;29;20036;-76
2021/03/02 03:23:53;;;;;;;36.78;19.83;;;51.40;2227.20;;;;;;4900113;29;20028;-75
2021/03/02 03:26:23;;;;;;;32.80;19.13;;;51.40;2227.20;;;;;;4907480;29;20028;-76
2021/03/02 03:28:51;;;;;;;39.10;20.40;;;51.30;2227.20;;;;;;4898449;29;20036;-75
2021/03/02 03:31:18;;;;;;;31.35;18.77;;;51.20;2227.20;;;;;;4915662;29;20025;-75
2021/03/02 03:33:44;;;;;;;31.10;16.60;;;51.20;2227.20;;;;;;4914205;29;20424;-76
2021/03/02 03:36:11;;;;;;;37.40;18.20;;;51.20;2227.20;;;;;;4898673;29;20040;-75
2021/03/02 03:38:37;;;;;;;36.35;19.05;;;51.20;2227.20;;;;;;4910601;29;20470;-75
2021/03/02 03:41:04;;;;;;;31.50;18.13;;;26.50;2201.60;;;;;;4901494;29;20032;-75
2021/03/02 03:43:30;;;;;;;33.95;17.95;;;26.50;2201.60;;;;;;4915239;29;20033;-75
2021/03/02 03:45:55;;;;;;;36.10;19.48;;;26.50;2201.60;;;;;;4915573;29;20028;-75
2021/03/02 03:48:22;;;;;;;36.97;18.92;;;26.50;2201.60;;;;;;4898481;29;20035;-75
2021/03/02 03:50:48;;;;;;;29.70;16.35;;;26.50;2201.60;;;;;;4898512;29;20123;-75
2021/03/02 03:53:17;;;;;;;33.13;19.17;;;26.50;2201.60;;;;;;4898556;29;20525;-77
2021/03/02 03:55:46;;;;;;;38.30;20.85;;;26.50;2201.60;;;;;;4915459;29;20075;-75
2021/03/02 03:58:19;;;;;;;35.60;16.98;;;26.50;2201.60;;;;;;4915314;29;20412;-77
2021/03/02 04:00:51;;;;;;;39.15;20.00;;;26.50;2201.60;;;;;;4915411;29;20036;-76
2021/03/02 04:03:19;;;;;;;39.88;18.50;;;26.40;2201.60;;;;;;4923614;29;20450;-76
2021/03/02 04:05:46;;;;;;;38.70;19.77;;;26.40;2201.60;;;;;;4885359;29;20034;-76
2021/03/02 04:08:13;;;;;;;36.22;21.35;;;26.40;2201.60;;;;;;4896211;29;20038;-74
2021/03/02 04:10:40;;;;;;;38.30;21.65;;;26.40;2201.60;;;;;;4913685;29;20032;-75
2021/03/02 04:13:11;;;;;;;39.53;20.60;;;26.40;2201.60;;;;;;4915279;29;20032;-76
2021/03/02 04:15:37;;;;;;;38.83;20.10;;;26.40;2201.60;;;;;;4895549;29;20405;-75
2021/03/02 04:18:08;;;;;;;35.35;18.83;;;26.40;2201.60;;;;;;4898398;29;20393;-73
2021/03/02 04:20:34;;;;;;;34.78;18.33;;;26.30;2201.60;;;;;;4925824;29;20035;-76
2021/03/02 04:23:00;;;;;;;37.28;19.88;;;26.30;2201.60;;;;;;4915586;29;20028;-74
2021/03/02 04:25:25;;;;;;;37.28;20.05;;;26.30;2201.60;;;;;;4898127;29;20489;-76
2021/03/02 04:27:51;;;;;;;38.75;19.92;;;26.30;2201.60;;;;;;4918716;29;20020;-76
2021/03/02 04:30:17;;;;;;;37.40;18.42;;;26.30;2201.60;;;;;;4908726;29;20518;-76
2021/03/02 04:32:43;;;;;;;40.95;22.75;;;26.40;2201.60;;;;;;4915384;29;20516;-76
2021/03/02 04:35:09;;;;;;;37.40;20.63;;;26.40;2201.60;;;;;;4921531;29;20031;-76
2021/03/02 04:37:36;;;;;;;39.17;21.55;;;26.30;2201.60;;;;;;4897075;29;20104;-75
2021/03/02 04:40:04;;;;;;;42.30;21.65;;;26.30;2201.60;;;;;;4919011;29;20042;-76
2021/03/02 04:42:30;;;;;;;41.22;20.27;;;26.30;2201.60;;;;;;4898316;29;20417;-75
2021/03/02 04:44:56;;;;;;;43.42;21.20;;;26.30;2201.60;;;;;;4918240;29;20036;-75
2021/03/02 04:47:21;;;;;;;46.78;24.02;;;26.20;2201.60;;;;;;4917675;29;20051;-75
2021/03/02 04:49:47;;;;;;;46.85;22.67;;;26.20;2201.60;;;;;;4920723;29;20495;-76
2021/03/02 04:52:13;;;;;;;39.00;21.35;;;26.20;2201.60;;;;;;4904841;29;20508;-76
2021/03/02 04:54:39;;;;;;;40.53;22.80;;;26.20;2201.60;;;;;;4916582;29;20043;-75
2021/03/02 04:57:04;;;;;;;44.85;24.52;;;26.10;2201.60;;;;;;4918037;29;20051;-74
2021/03/02 04:59:30;;;;;;;55.40;25.02;;;26.10;2201.60;;;;;;4919948;29;20491;-76
2021/03/02 05:01:56;;;;;;;44.53;24.00;;;26.20;2201.60;;;;;;4924968;29;20528;-76
2021/03/02 05:04:21;;;;;;;45.08;23.65;;;26.30;2201.60;;;;;;4913810;29;20405;-75
2021/03/02 05:06:47;;;;;;;38.90;19.90;;;26.20;2201.60;;;;;;4901263;29;20024;-75
2021/03/02 05:09:13;;;;;;;43.40;22.15;;;26.20;2201.60;;;;;;4933061;29;20120;-75
2021/03/02 05:11:38;;;;;;;48.30;23.10;;;26.10;2201.60;;;;;;4930813;29;20028;-75
2021/03/02 05:14:04;;;;;;;37.97;19.88;;;26.10;2201.60;;;;;;4930119;29;20053;-75
2021/03/02 05:16:30;;;;;;;38.65;21.30;;;26.10;2201.60;;;;;;4919602;29;20127;-75
2021/03/02 05:18:55;;;;;;;37.28;21.05;;;26.10;2201.60;;;;;;4936956;29;20027;-75
2021/03/02 05:21:21;;;;;;;42.70;23.33;;;26.00;2201.60;;;;;;4933123;29;20043;-75
2021/03/02 05:23:47;;;;;;;36.85;20.50;;;26.10;2201.60;;;;;;4925595;29;20503;-75
2021/03/02 05:26:12;;;;;;;41.97;21.83;;;26.10;2201.60;;;;;;4935573;29;20489;-75
2021/03/02 05:28:38;;;;;;;45.00;22.60;;;26.00;2201.60;;;;;;4928660;29;20040;-75
2021/03/02 05:31:04;;;;;;;47.55;23.70;;;26.10;2201.60;;;;;;4912603;29;20034;-75
2021/03/02 05:33:29;;;;;;;42.50;23.08;;;26.10;2201.60;;;;;;4931934;29;20052;-75
2021/03/02 05:35:55;;;;;;;42.55;22.10;;;26.10;2201.60;;;;;;4900211;29;20084;-74
2021/03/02 05:38:21;;;;;;;36.97;21.80;;;26.10;2201.60;;;;;;4932131;29;20497;-75
2021/03/02 05:40:47;;;;;;;42.53;22.02;;;26.20;2201.60;;;;;;4899405;29;20044;-75
2021/03/02 05:43:12;;;;;;;45.45;22.83;;;26.20;2201.60;;;;;;4920821;29;20044;-75
2021/03/02 05:45:38;;;;;;;48.30;24.90;;;26.20;2201.60;;;;;;4931661;29;20768;-75
2021/03/02 05:48:09;;;;;;;48.42;25.77;;;26.30;2201.60;;;;;;4900266;29;20397;-75
2021/03/02 05:50:35;;;;;;;49.35;25.80;;;26.30;2201.60;;;;;;4905677;29;20026;-76
2021/03/02 05:53:02;;;;;;;47.10;23.50;;;26.30;2201.60;;;;;;4905635;29;20130;-75
2021/03/02 05:55:33;;;;;;;38.88;21.48;;;26.20;2201.60;;;;;;4922383;29;20480;-75
2021/03/02 05:58:00;;;;;;;49.00;24.23;;;26.40;2201.60;;;;;;4916896;29;20028;-76
2021/03/02 06:00:26;;;;;;;45.20;23.13;;;26.40;2201.60;;;;;;4915789;29;20039;-75
2021/03/02 06:02:52;;;;;;;46.83;24.90;;;26.40;2201.60;;;;;;4899650;29;20036;-75
2021/03/02 06:05:18;;;;;;;50.28;25.08;;;26.40;2201.60;;;;;;4899504;29;20139;-75
2021/03/02 06:07:44;;;;;;;43.60;26.02;;;26.50;2201.60;;;;;;4903748;29;20028;-75
2021/03/02 06:10:10;;;;;;;48.85;25.75;;;51.20;2227.20;;;;;;4900176;29;20474;-74
2021/03/02 06:12:49;;;;;;;55.95;26.50;;;51.20;2227.20;;;;;;4924732;29;20078;-74
2021/03/02 06:15:17;;;;;;;54.72;24.35;;;51.30;2227.20;;;;;;4914646;29;20028;-75
2021/03/02 06:17:43;;;;;;;46.42;24.52;;;51.40;2227.20;;;;;;4917648;29;20043;-74
2021/03/02 06:20:21;;;;;;;50.53;24.17;;;51.50;2227.20;;;;;;4920166;29;20040;-74
2021/03/02 06:22:48;;;;;;;49.55;24.40;;;51.50;2227.20;;;;;;4903920;29;20373;-74
2021/03/02 06:25:33;;;;;;;49.25;22.83;;;51.50;2227.20;;;;;;4923365;29;20397;-75
2021/03/02 06:27:59;;;;;;;45.63;23.40;;;51.60;2227.20;;;;;;4898776;29;20802;-74
2021/03/02 06:30:25;;;;;;;41.72;22.95;;;51.60;2227.20;;;;;;4921861;29;20059;-75
2021/03/02 06:32:53;;;;;;;45.65;23.63;;;51.70;2227.20;;;;;;4917064;29;20107;-75
2021/03/02 06:35:38;;;;;;;46.45;23.65;;;51.70;2227.20;;;;;;4916826;29;20405;-74
2021/03/02 06:38:05;;;;;;;44.67;23.77;;;51.90;2227.20;;;;;;4899762;29;20075;-75
2021/03/02 06:40:45;;;;;;;41.80;23.27;;;51.90;2227.20;;;;;;4903638;29;20127;-75
2021/03/02 06:43:35;;;;;;;45.35;23.10;;;52.00;2227.20;;;;;;4915817;29;20496;-75
2021/03/02 06:46:06;;;;;;;42.35;22.95;;;52.00;2227.20;;;;;;4899813;29;20132;-75
2021/03/02 06:48:33;;;;;;;52.30;25.35;;;52.10;2227.20;;;;;;4904717;29;20111;-74
2021/03/02 06:50:59;;;;;;;48.00;24.70;;;76.80;2227.20;;;;;;4923072;29;20032;-74
2021/03/02 06:53:25;;;;;;;53.97;30.05;;;52.10;2227.20;;;;;;4923170;29;20110;-75
2021/03/02 06:55:51;;;;;;;52.08;27.83;;;76.90;2227.20;;;;;;4925553;29;20035;-75
2021/03/02 06:58:25;;;;;;;54.15;24.77;;;77.00;2227.20;;;;;;4930611;29;20496;-75
2021/03/02 07:00:55;;;;;;;47.30;25.95;;;77.10;2227.20;;;;;;4895264;29;20039;-74
2021/03/02 07:03:32;;;;;;;53.20;26.45;;;77.20;2227.20;;;;;;4913725;29;20136;-75
2021/03/02 07:06:28;;;;;;;42.78;23.73;;;77.30;2227.20;;;;;;4921048;29;20064;-74
2021/03/02 07:08:56;;;;;;;46.90;24.67;;;77.30;2227.20;;;;;;4931659;29;20501;-74
2021/03/02 07:11:27;;;;;;;48.35;24.65;;;77.50;2227.20;;;;;;4899149;29;20036;-75
2021/03/02 07:13:59;;;;;;;45.05;23.70;;;77.50;2227.20;;;;;;4914608;29;20182;-75
2021/03/02 07:16:40;;;;;;;40.88;22.27;;;77.70;2201.60;;;;;;4903329;29;20478;-75
2021/03/02 07:19:11;;;;;;;41.80;20.85;;;102.40;2201.60;;;;;;4910171;29;20753;-76
2021/03/02 07:21:40;;;;;;;42.83;20.90;;;102.40;2201.60;;;;;;4915547;29;20028;-75
2021/03/02 07:24:11;;;;;;;41.75;24.75;;;102.60;2201.60;;;;;;4912916;29;20106;-75
2021/03/02 07:26:41;;;;;;;39.80;20.90;;;102.60;2176.00;;;;;;4928164;29;20508;-75
2021/03/02 07:29:07;;;;;;;44.72;23.02;;;102.70;2176.00;;;;;;4916702;29;20112;-75
2021/03/02 07:31:33;;;;;;;42.72;23.38;;;102.80;2176.00;;;;;;4914741;29;20107;-75
2021/03/02 07:34:01;;;;;;;41.88;23.23;;;103.00;2150.40;;;;;;4908003;29;20045;-75
2021/03/02 07:36:36;;;;;;;35.22;22.20;;;103.10;2176.00;;;;;;4911764;29;20036;-76
2021/03/02 07:39:18;;;;;;;42.50;24.75;;;103.30;2124.80;;;;;;4915090;29;20047;-75
2021/03/02 07:41:45;;;;;;;41.00;23.02;;;128.10;2124.80;;;;;;4919498;29;20111;-77
2021/03/02 07:44:11;;;;;;;35.85;20.17;;;128.30;2099.20;;;;;;4913908;29;20409;-75
2021/03/02 07:46:37;;;;;;;37.13;18.75;;;128.50;2073.60;;;;;;4916739;29;20393;-76
2021/03/02 07:49:24;;;;;;;38.80;23.15;;;128.70;2073.60;;;;;;4916611;29;20020;-75
2021/03/02 07:51:56;;;;;;;39.67;23.25;;;153.60;2022.40;;;;;;4891672;29;20031;-75
2021/03/02 07:54:23;;;;;;;39.08;22.17;;;154.00;1996.80;;;;;;4894798;29;20032;-74
2021/03/02 07:56:49;;;;;;;35.80;21.83;;;154.20;1971.20;;;;;;4915061;29;20072;-75
2021/03/02 07:59:17;;;;;;;34.67;21.75;;;154.50;1945.60;;;;;;4913253;29;20028;-75
2021/03/02 08:01:42;;;;;;;36.92;20.70;;;179.20;1945.60;;;;;;4912221;29;20104;-75
2021/03/02 08:04:14;;;;;;;39.80;24.23;;;179.50;1920.00;;;;;;4910017;29;20457;-75
2021/03/02 08:06:41;;;;;;;41.10;23.27;;;179.70;1920.00;;;;;;4916805;29;20031;-75
2021/03/02 08:09:26;;;;;;;40.47;23.65;;;180.10;1868.80;;;;;;4913293;29;20035;-74
2021/03/02 08:11:54;;;;;;;37.60;22.92;;;204.80;1843.20;;;;;;4910598;29;20052;-74
2021/03/02 08:14:25;;;;;;;43.33;23.92;;;204.90;1843.20;;;;;;4915130;29;20028;-74
2021/03/02 08:16:55;;;;;;;43.35;23.55;;;205.30;1792.00;;;;;;4913039;29;20032;-75
2021/03/02 08:19:40;;;;;;;38.78;23.10;;;205.70;1792.00;;;;;;4919202;29;20426;-75
2021/03/02 08:22:18;;;;;;;35.00;22.27;;;230.60;1740.80;;;;;;4914147;29;20028;-75
2021/03/02 08:24:50;;;;;;;36.50;21.95;;;230.80;1715.20;;;;;;4922884;29;20380;-75
2021/03/02 08:27:37;;;;;;;37.50;23.23;;;230.90;1689.60;;;;;;4928737;29;20534;-75
2021/03/02 08:30:08;;;;;;;38.92;22.05;;;231.00;1689.60;;;;;;4895084;29;20071;-75
2021/03/02 08:32:35;;;;;;;36.95;20.67;;;231.20;1664.00;;;;;;4919367;29;20028;-74
2021/03/02 08:35:14;;;;;;;41.15;22.25;;;256.00;1638.40;;;;;;4913441;29;20127;-75
2021/03/02 08:37:51;;;;;;;36.60;22.05;;;256.40;1612.80;;;;;;4917179;29;20036;-74
2021/03/02 08:40:24;;;;;;;34.67;19.90;;;256.90;1536.00;;;;;;4918786;29;20024;-75
2021/03/02 08:43:04;;;;;;;31.48;20.25;;;282.10;1536.00;;;;;;4917832;29;20825;-76
2021/03/02 08:45:35;;;;;;;35.60;21.35;;;282.30;1510.40;;;;;;4923840;29;20035;-76
2021/03/02 08:48:23;;;;;;;36.70;21.35;;;307.20;1510.40;;;;;;4916027;29;20024;-76
2021/03/02 08:50:52;;;;;;;30.02;18.48;;;282.50;1484.80;;;;;;4900509;29;20114;-77
2021/03/02 08:53:37;;;;;;;35.92;19.75;;;307.20;1484.80;;;;;;4904297;29;20066;-76
2021/03/02 08:56:07;;;;;;;30.75;15.75;;;282.50;1459.20;;;;;;4910773;29;20033;-77
2021/03/02 08:58:38;;;;;;;28.27;16.88;;;307.40;1459.20;;;;;;4907402;29;20102;-78
2021/03/02 09:01:12;;;;;;;29.08;17.55;;;307.70;1408.00;;;;;;4902901;29;20043;-76
2021/03/02 09:03:43;;;;;;;29.33;15.85;;;308.10;1408.00;;;;;;4911680;29;20123;-76
2021/03/02 09:06:10;;;;;;;25.58;15.88;;;332.80;1382.40;;;;;;4910282;29;20040;-76
2021/03/02 09:08:41;;;;;;;22.38;15.85;;;333.00;1382.40;;;;;;4898213;29;20512;-76
2021/03/02 09:11:07;;;;;;;29.63;15.93;;;333.20;1356.80;;;;;;4912493;29;20069;-76
2021/03/02 09:13:35;;;;;;;25.02;15.75;;;333.60;1305.60;;;;;;4911341;29;20573;-76
2021/03/02 09:16:00;;;;;;;29.95;17.60;;;358.50;1305.60;;;;;;4899156;29;20050;-76
2021/03/02 09:18:26;;;;;;;22.05;14.55;;;358.80;1280.00;;;;;;4912259;29;20486;-76
2021/03/02 09:20:55;;;;;;;20.77;13.27;;;358.90;1254.40;;;;;;4918198;29;20811;-76
2021/03/02 09:23:24;;;;;;;26.13;13.63;;;358.90;1254.40;;;;;;4893995;29;20507;-75
2021/03/02 09:25:51;;;;;;;20.00;13.52;;;359.00;1254.40;;;;;;4910354;29;20021;-76
2021/03/02 09:28:19;;;;;;;21.05;13.57;;;358.90;1228.80;;;;;;4910949;29;20033;-76
2021/03/02 09:30:46;;;;;;;17.23;11.20;;;359.30;1177.60;;;;;;4909692;29;20111;-76
2021/03/02 09:33:16;;;;;;;15.90;10.75;;;384.10;1152.00;;;;;;4915296;29;20067;-76
2021/03/02 09:35:42;;;;;;;13.48;9.55;;;384.20;1100.80;;;;;;4899125;29;20044;-76
2021/03/02 09:38:26;;;;;;;18.17;10.05;;;384.30;1100.80;;;;;;4911311;29;20396;-76
2021/03/02 09:40:51;;;;;;;15.13;10.55;;;384.20;1126.40;;;;;;4915769;29;20028;-76
2021/03/02 09:43:17;;;;;;;16.60;11.50;;;384.20;1100.80;;;;;;4897124;29;20035;-76
2021/03/02 09:45:53;;;;;;;20.60;10.20;;;384.10;1126.40;;;;;;4914279;29;20030;-76
2021/03/02 09:48:19;;;;;;;18.23;11.07;;;384.40;1100.80;;;;;;4915361;29;20028;-76
2021/03/02 09:50:45;;;;;;;17.75;10.63;;;384.70;1100.80;;;;;;4913906;29;20038;-76
2021/03/02 09:53:15;;;;;;;18.88;11.18;;;384.70;1075.20;;;;;;4908502;29;20044;-76
2021/03/02 09:55:42;;;;;;;16.10;11.23;;;384.80;1075.20;;;;;;4895289;29;20477;-76
2021/03/02 09:58:19;;;;;;;20.35;11.82;;;409.60;1075.20;;;;;;4908604;29;20367;-76
2021/03/02 10:00:44;;;;;;;20.35;13.23;;;384.90;1075.20;;;;;;4907662;29;20501;-76
2021/03/02 10:03:14;;;;;;;17.13;12.27;;;409.70;1075.20;;;;;;4906153;29;20063;-76
2021/03/02 10:05:58;;;;;;;27.88;17.65;;;410.10;1049.60;;;;;;4920996;29;20047;-76
2021/03/02 10:08:42;;;;;;;12.32;9.32;;;435.20;1049.60;;;;;;4906073;29;20527;-78
2021/03/02 10:11:11;;;;;;;20.58;11.70;;;410.10;1075.20;;;;;;4907443;29;20405;-76
2021/03/02 10:13:39;;;;;;;17.75;10.90;;;410.30;1049.60;;;;;;4907865;29;20036;-75
2021/03/02 10:16:13;;;;;;;24.38;15.18;;;435.40;1024.00;;;;;;4908614;29;20039;-77
2021/03/02 10:18:56;;;;;;;20.25;13.32;;;435.90;998.40;;;;;;4909615;29;20055;-77
2021/03/02 10:21:30;;;;;;;18.38;11.85;;;436.10;972.80;;;;;;4907406;29;20036;-79
2021/03/02 10:23:58;;;;;;;15.75;11.95;;;436.00;998.40;;;;;;4914316;29;20027;-79
2021/03/02 10:26:30;;;;;;;15.90;11.20;;;460.80;972.80;;;;;;4915977;29;20142;-78
2021/03/02 10:28:57;;;;;;;18.13;12.00;;;461.00;972.80;;;;;;4891220;29;20519;-77
2021/03/02 10:31:23;;;;;;;18.08;12.65;;;461.00;972.80;;;;;;4910552;29;20028;-77
2021/03/02 10:33:49;;;;;;;15.32;11.32;;;460.80;998.40;;;;;;4912769;29;20067;-75
2021/03/02 10:36:20;;;;;;;16.13;11.68;;;436.00;972.80;;;;;;4914126;29;20035;-77
2021/03/02 10:38:46;;;;;;;18.90;11.07;;;460.80;998.40;;;;;;4912780;29;20024;-77
2021/03/02 10:41:12;;;;;;;17.52;11.10;;;461.50;972.80;;;;;;4894866;29;20039;-77
2021/03/02 10:43:37;;;;;;;15.35;9.60;;;461.20;947.20;;;;;;4911757;29;20389;-77
2021/03/02 10:46:03;;;;;;;15.93;11.88;;;461.40;947.20;;;;;;4909307;29;20036;-77
2021/03/02 10:48:29;;;;;;;15.70;10.55;;;461.50;947.20;;;;;;4911342;29;20084;-78
2021/03/02 10:50:54;;;;;;;15.60;10.80;;;460.90;998.40;;;;;;4911143;29;20039;-78
2021/03/02 10:53:20;;;;;;;14.55;10.88;;;461.70;921.60;;;;;;4895740;29;20123;-76
2021/03/02 10:55:46;;;;;;;17.30;11.30;;;461.50;947.20;;;;;;4912157;29;20036;-75
2021/03/02 10:58:11;;;;;;;19.00;12.88;;;461.40;947.20;;;;;;4909955;29;20031;-75
2021/03/02 11:00:37;;;;;;;15.13;11.05;;;461.50;947.20;;;;;;4906916;29;20828;-75
2021/03/02 11:03:04;;;;;;;22.08;13.43;;;461.50;921.60;;;;;;4903673;29;20035;-77
2021/03/02 11:05:29;;;;;;;20.90;12.27;;;486.70;896.00;;;;;;4905203;29;20043;-76
2021/03/02 11:07:55;;;;;;;16.55;11.57;;;486.80;896.00;;;;;;4895977;29;20029;-77
2021/03/02 11:10:21;;;;;;;19.02;12.13;;;486.50;921.60;;;;;;4906269;29;20032;-77
2021/03/02 11:12:47;;;;;;;18.20;11.75;;;486.40;921.60;;;;;;4906347;29;20068;-77
2021/03/02 11:15:13;;;;;;;16.05;11.27;;;461.30;947.20;;;;;;4909959;29;20394;-78
2021/03/02 11:17:39;;;;;;;16.73;11.40;;;461.60;921.60;;;;;;4910794;29;20036;-75
2021/03/02 11:20:06;;;;;;;22.95;12.60;;;486.50;896.00;;;;;;4921934;29;20040;-78
2021/03/02 11:22:32;;;;;;;23.13;12.63;;;461.70;921.60;;;;;;4910097;29;20676;-78
2021/03/02 11:24:58;;;;;;;18.77;11.35;;;486.50;921.60;;;;;;4906780;29;20541;-76
2021/03/02 11:27:24;;;;;;;19.52;13.25;;;487.20;870.40;;;;;;4911869;29;20027;-76
2021/03/02 11:29:49;;;;;;;17.85;11.48;;;512.00;844.80;;;;;;4908941;29;20028;-76
2021/03/02 11:32:15;;;;;;;18.48;11.38;;;512.50;819.20;;;;;;4912778;29;20442;-75
2021/03/02 11:34:41;;;;;;;20.80;12.57;;;538.40;793.60;;;;;;4904891;29;20048;-76
2021/03/02 11:37:07;;;;;;;19.00;13.57;;;537.90;819.20;;;;;;4926121;29;20068;-78
2021/03/02 11:39:32;;;;;;;15.88;11.57;;;537.70;844.80;;;;;;4905990;29;20057;-76
2021/03/02 11:41:58;;;;;;;20.23;13.05;;;512.10;844.80;;;;;;4898398;29;20039;-78
2021/03/02 11:44:24;;;;;;;17.80;13.07;;;486.60;896.00;;;;;;4908524;29;20516;-78
2021/03/02 11:46:50;;;;;;;17.70;12.05;;;486.90;870.40;;;;;;4905620;29;20738;-78
2021/03/02 11:49:15;;;;;;;16.65;11.50;;;512.20;844.80;;;;;;4897685;29;20028;-78
2021/03/02 11:51:41;;;;;;;20.75;13.52;;;512.60;819.20;;;;;;4909987;29;20024;-75
2021/03/02 11:54:07;;;;;;;18.92;11.90;;;512.80;819.20;;;;;;4912764;29;20064;-74
2021/03/02 11:56:33;;;;;;;20.08;11.88;;;512.70;793.60;;;;;;4911520;29;20035;-75
2021/03/02 11:58:59;;;;;;;19.20;11.70;;;512.90;793.60;;;;;;4911056;29;20420;-84
2021/03/02 12:01:25;;;;;;;16.23;10.68;;;512.40;819.20;;;;;;4920160;29;20055;-81
2021/03/02 12:03:50;;;;;;;15.38;11.77;;;512.90;768.00;;;;;;4904927;29;20047;-82
2021/03/02 12:06:16;;;;;;;15.38;12.05;;;512.90;793.60;;;;;;4911678;29;20424;-84
2021/03/02 12:08:41;;;;;;;19.58;12.65;;;512.60;819.20;;;;;;4911927;29;20028;-82
2021/03/02 12:11:07;;;;;;;16.90;11.95;;;538.00;793.60;;;;;;4911854;29;20024;-83
2021/03/02 12:13:33;;;;;;;17.33;13.32;;;537.60;819.20;;;;;;4906968;29;20089;-82